Time;durP1;ratioP1;P1;durP2;ratioP2;P2;SDS_P1;SDS_P2;PMS_P1;PMS_P2;Temp;Humidity;BMP_temperature;BMP_pressure;BME280_temperature;BME280_humidity;BME280_pressure;Samples;Min_cycle;Max_cycle;Signal;HPM_P1;HPM_P2
2022/09/25 00:00:07;;;;;;;0.40;0.40;;;;;;;;;;7382757;19;20192;-74
2022/09/25 00:02:32;;;;;;;0.20;0.20;;;;;;;;;;7389958;19;20128;-73
2022/09/25 00:04:57;;;;;;;0.20;0.20;;;;;;;;;;7378236;19;20468;-73
2022/09/25 00:07:23;;;;;;;0.20;0.20;;;;;;;;;;7384568;19;20117;-74
2022/09/25 00:09:48;;;;;;;0.20;0.20;;;;;;;;;;7381090;19;20108;-74
2022/09/25 00:12:14;;;;;;;0.23;0.23;;;;;;;;;;7385813;19;20125;-74
2022/09/25 00:14:39;;;;;;;0.30;0.30;;;;;;;;;;7383676;19;20156;-74
2022/09/25 00:17:05;;;;;;;0.30;0.30;;;;;;;;;;7383524;19;20540;-74
2022/09/25 00:22:15;;;;;;;0.20;0.20;;;;;;;;;;7388206;19;20214;-73
2022/09/25 00:24:40;;;;;;;1.50;0.77;;;;;;;;;;7383105;19;20471;-74
2022/09/25 00:27:07;;;;;;;0.20;0.20;;;;;;;;;;7387332;19;20105;-73
2022/09/25 00:29:35;;;;;;;0.40;0.40;;;;;;;;;;7382676;19;20105;-73
2022/09/25 00:32:00;;;;;;;0.30;0.30;;;;;;;;;;7387400;19;20125;-73
2022/09/25 00:34:26;;;;;;;0.30;0.30;;;;;;;;;;7372287;19;20149;-73
2022/09/25 00:36:51;;;;;;;0.30;0.30;;;;;;;;;;7378989;19;20106;-74
2022/09/25 00:39:16;;;;;;;0.20;0.20;;;;;;;;;;7384861;19;20106;-74
2022/09/25 00:41:42;;;;;;;0.20;0.20;;;;;;;;;;7383934;19;20101;-74
2022/09/25 00:44:45;;;;;;;0.53;0.53;;;;;;;;;;7385031;19;20148;-73
2022/09/25 00:47:12;;;;;;;0.30;0.30;;;;;;;;;;7385888;19;20136;-73
2022/09/25 00:49:37;;;;;;;0.30;0.30;;;;;;;;;;7380272;19;20113;-73
2022/09/25 00:52:05;;;;;;;0.20;0.20;;;;;;;;;;7381509;19;20105;-73
2022/09/25 00:54:35;;;;;;;0.60;0.60;;;;;;;;;;7381174;19;20671;-73
2022/09/25 00:57:03;;;;;;;0.30;0.30;;;;;;;;;;7380584;19;20112;-74
2022/09/25 00:59:32;;;;;;;0.30;0.30;;;;;;;;;;7380566;19;20176;-73
2022/09/25 01:01:58;;;;;;;0.30;0.30;;;;;;;;;;7381115;19;20347;-73
2022/09/25 01:04:23;;;;;;;2.17;0.87;;;;;;;;;;7380233;19;20172;-73
2022/09/25 01:06:49;;;;;;;0.30;0.30;;;;;;;;;;7381611;19;20113;-74
2022/09/25 01:09:15;;;;;;;0.50;0.50;;;;;;;;;;7380210;19;20117;-73
2022/09/25 01:11:40;;;;;;;0.30;0.30;;;;;;;;;;7380439;19;20109;-73
2022/09/25 01:14:07;;;;;;;0.30;0.30;;;;;;;;;;7377901;19;20125;-74
2022/09/25 01:16:48;;;;;;;0.20;0.20;;;;;;;;;;7382248;19;20150;-74
2022/09/25 01:19:37;;;;;;;0.77;0.77;;;;;;;;;;7379995;19;20133;-73
2022/09/25 01:22:10;;;;;;;0.30;0.30;;;;;;;;;;7381068;19;20117;-73
2022/09/25 01:24:41;;;;;;;0.30;0.30;;;;;;;;;;7385389;19;20226;-73
2022/09/25 01:27:15;;;;;;;0.30;0.30;;;;;;;;;;7385041;19;20564;-73
2022/09/25 01:30:07;;;;;;;0.40;0.40;;;;;;;;;;7384801;19;20116;-73
2022/09/25 01:33:01;;;;;;;0.30;0.30;;;;;;;;;;7386469;19;20551;-73
2022/09/25 01:35:33;;;;;;;0.30;0.30;;;;;;;;;;7383349;19;20596;-72
2022/09/25 01:38:09;;;;;;;0.20;0.20;;;;;;;;;;7386463;19;20591;-73
2022/09/25 01:40:47;;;;;;;0.20;0.20;;;;;;;;;;7383531;19;20116;-73
2022/09/25 01:43:13;;;;;;;0.30;0.30;;;;;;;;;;7385237;19;20125;-73
2022/09/25 01:45:47;;;;;;;0.30;0.30;;;;;;;;;;7385244;19;20141;-73
2022/09/25 01:48:15;;;;;;;0.30;0.30;;;;;;;;;;7382199;19;20595;-73
2022/09/25 01:50:46;;;;;;;0.20;0.20;;;;;;;;;;7383427;19;20113;-73
2022/09/25 01:53:17;;;;;;;0.30;0.30;;;;;;;;;;7382749;19;20109;-73
2022/09/25 01:55:46;;;;;;;0.20;0.20;;;;;;;;;;7382306;19;20429;-73
2022/09/25 01:58:19;;;;;;;0.30;0.30;;;;;;;;;;7379996;19;20109;-73
2022/09/25 02:00:50;;;;;;;0.30;0.30;;;;;;;;;;7378271;19;20128;-73
2022/09/25 02:03:33;;;;;;;0.20;0.20;;;;;;;;;;7378638;19;20113;-73
2022/09/25 02:06:01;;;;;;;0.30;0.30;;;;;;;;;;7381029;19;20154;-73
2022/09/25 02:08:33;;;;;;;0.30;0.30;;;;;;;;;;7374689;19;20579;-73
2022/09/25 02:11:03;;;;;;;0.60;0.60;;;;;;;;;;7379250;19;20200;-74
2022/09/25 02:13:48;;;;;;;0.30;0.30;;;;;;;;;;7376879;19;20165;-73
2022/09/25 02:16:37;;;;;;;0.30;0.30;;;;;;;;;;7377762;19;20151;-73
2022/09/25 02:22:04;;;;;;;0.30;0.30;;;;;;;;;;7380194;19;20482;-73
2022/09/25 02:24:46;;;;;;;0.20;0.20;;;;;;;;;;7381145;19;20199;-73
2022/09/25 02:27:11;;;;;;;0.30;0.30;;;;;;;;;;7380463;19;20130;-73
2022/09/25 02:29:37;;;;;;;0.50;0.50;;;;;;;;;;7382328;19;20118;-73
2022/09/25 02:32:08;;;;;;;0.80;0.80;;;;;;;;;;7384313;19;20126;-73
2022/09/25 02:34:34;;;;;;;0.23;0.23;;;;;;;;;;7377105;19;20579;-73
2022/09/25 02:36:59;;;;;;;0.43;0.43;;;;;;;;;;7377920;19;20121;-73
2022/09/25 02:39:27;;;;;;;0.30;0.30;;;;;;;;;;7378621;19;20117;-73
2022/09/25 02:42:15;;;;;;;0.23;0.23;;;;;;;;;;7374381;19;20118;-73
2022/09/25 02:44:57;;;;;;;0.70;0.70;;;;;;;;;;7380323;19;20496;-74
2022/09/25 02:47:44;;;;;;;0.23;0.23;;;;;;;;;;7376655;19;20125;-73
2022/09/25 02:50:09;;;;;;;0.30;0.30;;;;;;;;;;7369924;19;20163;-73
2022/09/25 02:52:44;;;;;;;0.50;0.50;;;;;;;;;;7379949;19;20457;-73
2022/09/25 02:55:17;;;;;;;0.60;0.60;;;;;;;;;;7375885;19;20184;-73
2022/09/25 02:58:03;;;;;;;0.30;0.30;;;;;;;;;;7383573;19;20125;-73
2022/09/25 03:00:29;;;;;;;0.30;0.30;;;;;;;;;;7382437;19;20113;-73
2022/09/25 03:02:58;;;;;;;0.20;0.20;;;;;;;;;;7384764;19;20150;-73
2022/09/25 03:05:24;;;;;;;0.20;0.20;;;;;;;;;;7384140;19;20121;-73
2022/09/25 03:10:35;;;;;;;0.30;0.30;;;;;;;;;;7382616;19;20116;-73
2022/09/25 03:13:22;;;;;;;0.30;0.30;;;;;;;;;;7377636;19;20124;-73
2022/09/25 03:15:50;;;;;;;0.30;0.30;;;;;;;;;;7378373;19;20117;-73
2022/09/25 03:18:16;;;;;;;1.00;1.00;;;;;;;;;;7380581;19;20124;-73
2022/09/25 03:20:42;;;;;;;0.30;0.30;;;;;;;;;;7379146;19;20125;-73
2022/09/25 03:23:07;;;;;;;0.30;0.30;;;;;;;;;;7378989;19;20121;-73
2022/09/25 03:25:33;;;;;;;0.97;0.97;;;;;;;;;;7375220;19;20105;-73
2022/09/25 03:27:58;;;;;;;0.30;0.30;;;;;;;;;;7386664;19;20117;-73
2022/09/25 03:30:23;;;;;;;0.30;0.30;;;;;;;;;;7387910;19;20140;-73
2022/09/25 03:32:49;;;;;;;0.30;0.30;;;;;;;;;;7387325;19;20113;-73
2022/09/25 03:35:14;;;;;;;0.30;0.30;;;;;;;;;;7382736;19;20152;-73
2022/09/25 03:37:39;;;;;;;0.30;0.30;;;;;;;;;;7378348;19;20136;-73
2022/09/25 03:40:05;;;;;;;0.30;0.30;;;;;;;;;;7377421;19;20752;-73
2022/09/25 03:42:31;;;;;;;0.40;0.40;;;;;;;;;;7370037;19;20125;-73
2022/09/25 03:44:56;;;;;;;0.30;0.30;;;;;;;;;;7377462;19;20161;-73
2022/09/25 03:47:21;;;;;;;0.30;0.30;;;;;;;;;;7382875;19;20112;-73
2022/09/25 03:49:47;;;;;;;1.67;0.60;;;;;;;;;;7379912;19;20188;-73
2022/09/25 03:52:13;;;;;;;0.30;0.30;;;;;;;;;;7381027;19;20125;-73
2022/09/25 03:54:38;;;;;;;0.30;0.30;;;;;;;;;;7374502;19;20159;-73
2022/09/25 03:57:03;;;;;;;0.30;0.30;;;;;;;;;;7385097;19;20149;-73
2022/09/25 03:59:29;;;;;;;0.30;0.30;;;;;;;;;;7387598;19;20607;-73
2022/09/25 04:01:54;;;;;;;0.50;0.50;;;;;;;;;;7388859;19;20590;-73
2022/09/25 04:04:19;;;;;;;0.30;0.30;;;;;;;;;;7386392;19;20176;-73
2022/09/25 04:06:45;;;;;;;0.30;0.30;;;;;;;;;;7388572;19;20141;-73
2022/09/25 04:09:10;;;;;;;0.30;0.30;;;;;;;;;;7386737;19;20121;-73
2022/09/25 04:11:36;;;;;;;0.30;0.30;;;;;;;;;;7380663;19;20189;-73
2022/09/25 04:14:02;;;;;;;1.67;1.57;;;;;;;;;;7383332;19;20161;-73
2022/09/25 04:16:28;;;;;;;0.50;0.50;;;;;;;;;;7383325;19;20113;-73
2022/09/25 04:18:53;;;;;;;0.67;0.67;;;;;;;;;;7386329;19;20113;-73
2022/09/25 04:21:19;;;;;;;0.20;0.20;;;;;;;;;;7382867;19;20479;-73
2022/09/25 04:24:47;;;;;;;0.20;0.20;;;;;;;;;;7383330;19;20472;-73
2022/09/25 04:26:33;;;;;;;0.30;0.30;;;;;;;;;;7383601;19;20212;-72
2022/09/25 04:29:00;;;;;;;0.20;0.20;;;;;;;;;;7384078;19;20121;-73
2022/09/25 04:31:26;;;;;;;0.30;0.30;;;;;;;;;;7380861;19;20504;-73
2022/09/25 04:33:51;;;;;;;0.30;0.30;;;;;;;;;;7379023;19;20731;-73
2022/09/25 04:36:17;;;;;;;0.40;0.40;;;;;;;;;;7376870;19;20105;-73
2022/09/25 04:38:43;;;;;;;0.30;0.30;;;;;;;;;;7374111;19;20421;-73
2022/09/25 04:41:08;;;;;;;0.40;0.40;;;;;;;;;;7374677;19;20114;-73
2022/09/25 04:43:34;;;;;;;0.30;0.30;;;;;;;;;;7385549;19;20180;-73
2022/09/25 04:46:05;;;;;;;0.30;0.30;;;;;;;;;;7379501;19;20113;-73
2022/09/25 04:48:31;;;;;;;0.23;0.23;;;;;;;;;;7381120;19;20113;-73
2022/09/25 04:50:57;;;;;;;0.30;0.30;;;;;;;;;;7380440;19;20534;-73
2022/09/25 04:53:23;;;;;;;0.57;0.57;;;;;;;;;;7386518;19;20125;-73
2022/09/25 04:55:48;;;;;;;0.20;0.20;;;;;;;;;;7388044;19;20483;-73
2022/09/25 04:58:14;;;;;;;0.30;0.30;;;;;;;;;;7387414;19;20157;-74
2022/09/25 05:00:39;;;;;;;0.30;0.30;;;;;;;;;;7383806;19;20141;-73
2022/09/25 05:03:05;;;;;;;0.30;0.30;;;;;;;;;;7381243;19;20153;-72
2022/09/25 05:05:30;;;;;;;0.30;0.30;;;;;;;;;;7380020;19;20571;-73
2022/09/25 05:07:58;;;;;;;0.50;0.50;;;;;;;;;;7384880;19;20128;-73
2022/09/25 05:10:26;;;;;;;0.30;0.30;;;;;;;;;;7379287;19;20132;-73
2022/09/25 05:13:00;;;;;;;0.30;0.30;;;;;;;;;;7378525;19;20117;-73
2022/09/25 05:18:47;;;;;;;0.20;0.20;;;;;;;;;;7374940;19;20112;-73
2022/09/25 05:21:12;;;;;;;0.43;0.43;;;;;;;;;;7381923;19;20524;-73
2022/09/25 05:23:38;;;;;;;0.30;0.30;;;;;;;;;;7382624;19;20216;-73
2022/09/25 05:26:03;;;;;;;0.30;0.30;;;;;;;;;;7377736;19;20579;-73
2022/09/25 05:28:29;;;;;;;0.43;0.43;;;;;;;;;;7377375;19;20970;-73
2022/09/25 05:30:59;;;;;;;0.30;0.30;;;;;;;;;;7383239;19;20125;-73
2022/09/25 05:33:24;;;;;;;0.40;0.40;;;;;;;;;;7363443;19;20199;-73
2022/09/25 05:35:49;;;;;;;2.57;0.97;;;;;;;;;;7366242;19;20702;-73
2022/09/25 05:38:15;;;;;;;0.20;0.20;;;;;;;;;;7375380;19;20885;-73
2022/09/25 05:40:40;;;;;;;0.40;0.40;;;;;;;;;;7374926;19;20184;-73
2022/09/25 05:43:06;;;;;;;0.30;0.30;;;;;;;;;;7379515;19;20109;-73
2022/09/25 05:45:32;;;;;;;0.20;0.20;;;;;;;;;;7375479;19;20116;-73
2022/09/25 05:48:02;;;;;;;0.40;0.40;;;;;;;;;;7373989;19;20670;-73
2022/09/25 05:50:31;;;;;;;0.70;0.70;;;;;;;;;;7372939;19;20172;-73
2022/09/25 05:53:00;;;;;;;0.30;0.30;;;;;;;;;;7375758;19;20113;-73
2022/09/25 05:55:25;;;;;;;0.40;0.40;;;;;;;;;;7375980;19;20136;-73
2022/09/25 05:57:50;;;;;;;0.47;0.47;;;;;;;;;;7382382;19;20125;-73
2022/09/25 06:00:16;;;;;;;0.40;0.40;;;;;;;;;;7381469;19;20517;-73
2022/09/25 06:02:42;;;;;;;0.20;0.20;;;;;;;;;;7384457;19;20320;-73
2022/09/25 06:05:07;;;;;;;0.30;0.30;;;;;;;;;;7381470;19;20117;-73
2022/09/25 06:07:33;;;;;;;0.30;0.30;;;;;;;;;;7385050;19;20120;-73
2022/09/25 06:09:58;;;;;;;0.30;0.30;;;;;;;;;;7381012;19;20117;-73
2022/09/25 06:12:24;;;;;;;0.30;0.30;;;;;;;;;;7381907;19;20453;-73
2022/09/25 06:14:51;;;;;;;0.20;0.20;;;;;;;;;;7379443;19;20121;-73
2022/09/25 06:17:16;;;;;;;0.30;0.30;;;;;;;;;;7383161;19;20153;-73
2022/09/25 06:19:41;;;;;;;0.30;0.30;;;;;;;;;;7382410;19;20181;-73
2022/09/25 06:22:07;;;;;;;0.30;0.30;;;;;;;;;;7380203;19;20518;-73
2022/09/25 06:24:32;;;;;;;0.30;0.30;;;;;;;;;;7383116;19;20159;-73
2022/09/25 06:26:57;;;;;;;0.30;0.30;;;;;;;;;;7382705;19;20121;-73
2022/09/25 06:29:23;;;;;;;0.30;0.30;;;;;;;;;;7382525;19;20135;-73
2022/09/25 06:31:49;;;;;;;0.30;0.30;;;;;;;;;;7376885;19;20116;-73
2022/09/25 06:34:14;;;;;;;0.30;0.30;;;;;;;;;;7380915;19;20676;-73
2022/09/25 06:36:39;;;;;;;0.30;0.30;;;;;;;;;;7388268;19;20594;-73
2022/09/25 06:39:05;;;;;;;0.67;0.67;;;;;;;;;;7388336;19;20651;-73
2022/09/25 06:41:31;;;;;;;0.30;0.30;;;;;;;;;;7388109;19;20113;-73
2022/09/25 06:43:56;;;;;;;0.30;0.30;;;;;;;;;;7384659;19;20489;-72
2022/09/25 06:46:21;;;;;;;0.30;0.30;;;;;;;;;;7392177;19;20200;-73
2022/09/25 06:48:52;;;;;;;0.20;0.20;;;;;;;;;;7388923;19;20126;-72
2022/09/25 06:51:18;;;;;;;0.30;0.30;;;;;;;;;;7388867;19;20176;-72
2022/09/25 06:53:43;;;;;;;0.20;0.20;;;;;;;;;;7366268;19;20656;-72
2022/09/25 06:56:09;;;;;;;0.30;0.30;;;;;;;;;;7385937;19;20116;-73
2022/09/25 06:58:34;;;;;;;1.07;1.07;;;;;;;;;;7388068;19;20137;-73
2022/09/25 07:01:00;;;;;;;0.30;0.30;;;;;;;;;;7380704;19;20109;-72
2022/09/25 07:03:44;;;;;;;0.67;0.53;;;;;;;;;;7373689;19;20125;-72
2022/09/25 07:06:11;;;;;;;0.57;0.57;;;;;;;;;;7379455;19;20133;-73
2022/09/25 07:08:37;;;;;;;0.30;0.30;;;;;;;;;;7378484;19;20134;-73
2022/09/25 07:11:02;;;;;;;0.30;0.30;;;;;;;;;;7375805;19;20117;-73
2022/09/25 07:13:30;;;;;;;0.30;0.30;;;;;;;;;;7371471;19;20164;-73
2022/09/25 07:16:00;;;;;;;0.30;0.30;;;;;;;;;;7380088;19;20698;-72
2022/09/25 07:18:27;;;;;;;0.30;0.30;;;;;;;;;;7380241;19;20583;-73
2022/09/25 07:20:53;;;;;;;0.30;0.30;;;;;;;;;;7377961;19;20160;-73
2022/09/25 07:23:20;;;;;;;0.40;0.40;;;;;;;;;;7376614;19;20121;-73
2022/09/25 07:25:46;;;;;;;0.50;0.50;;;;;;;;;;7382790;19;20140;-73
2022/09/25 07:28:13;;;;;;;0.30;0.30;;;;;;;;;;7382794;19;20147;-73
2022/09/25 07:30:39;;;;;;;0.30;0.30;;;;;;;;;;7377766;19;20121;-73
2022/09/25 07:33:04;;;;;;;0.20;0.20;;;;;;;;;;7376718;19;20102;-73
2022/09/25 07:35:30;;;;;;;0.30;0.30;;;;;;;;;;7383299;19;20109;-73
2022/09/25 07:37:56;;;;;;;0.60;0.60;;;;;;;;;;7384040;19;20138;-73
2022/09/25 07:40:22;;;;;;;0.70;0.70;;;;;;;;;;7381277;19;20121;-73
2022/09/25 07:42:47;;;;;;;0.30;0.30;;;;;;;;;;7378305;19;20672;-73
2022/09/25 07:45:12;;;;;;;0.30;0.30;;;;;;;;;;7365544;19;20142;-73
2022/09/25 07:47:38;;;;;;;0.20;0.20;;;;;;;;;;7383565;19;20501;-73
2022/09/25 07:50:03;;;;;;;0.30;0.30;;;;;;;;;;7380308;19;20117;-73
2022/09/25 07:52:29;;;;;;;0.20;0.20;;;;;;;;;;7375461;19;20580;-73
2022/09/25 07:54:54;;;;;;;0.30;0.30;;;;;;;;;;7363116;19;20121;-73
2022/09/25 07:57:19;;;;;;;1.20;0.83;;;;;;;;;;7374903;19;20125;-73
2022/09/25 07:59:48;;;;;;;0.30;0.30;;;;;;;;;;7379956;19;20101;-73
2022/09/25 08:02:13;;;;;;;0.63;0.50;;;;;;;;;;7380949;19;20125;-73
2022/09/25 08:04:38;;;;;;;0.30;0.30;;;;;;;;;;7378183;19;20153;-73
2022/09/25 08:10:25;;;;;;;0.30;0.30;;;;;;;;;;7382764;19;20197;-72
2022/09/25 08:12:51;;;;;;;2.90;0.57;;;;;;;;;;7377379;19;20109;-72
2022/09/25 08:15:16;;;;;;;0.30;0.30;;;;;;;;;;7375319;19;20486;-72
2022/09/25 08:17:42;;;;;;;0.67;0.67;;;;;;;;;;7375653;19;20353;-73
2022/09/25 08:20:08;;;;;;;0.30;0.30;;;;;;;;;;7373678;19;20913;-73
2022/09/25 08:22:34;;;;;;;0.30;0.30;;;;;;;;;;7367397;19;20549;-73
2022/09/25 08:25:02;;;;;;;0.20;0.20;;;;;;;;;;7369276;19;20162;-72
2022/09/25 08:27:28;;;;;;;0.30;0.30;;;;;;;;;;7382200;19;20122;-73
2022/09/25 08:29:53;;;;;;;0.30;0.30;;;;;;;;;;7381157;19;20851;-72
2022/09/25 08:32:19;;;;;;;0.40;0.40;;;;;;;;;;7379616;19;20139;-72
2022/09/25 08:34:44;;;;;;;0.30;0.30;;;;;;;;;;7377602;19;20114;-73
2022/09/25 08:37:09;;;;;;;0.30;0.30;;;;;;;;;;7377659;19;20124;-73
2022/09/25 08:39:35;;;;;;;0.30;0.30;;;;;;;;;;7381637;19;20173;-72
2022/09/25 08:42:01;;;;;;;0.27;0.27;;;;;;;;;;7381546;19;20124;-73
2022/09/25 08:44:47;;;;;;;0.20;0.20;;;;;;;;;;7380119;19;20185;-73
2022/09/25 08:50:14;;;;;;;0.30;0.30;;;;;;;;;;7377371;19;20198;-73
2022/09/25 08:52:44;;;;;;;0.30;0.30;;;;;;;;;;7374762;19;20113;-73
2022/09/25 08:55:23;;;;;;;0.30;0.30;;;;;;;;;;7379592;19;20455;-73
2022/09/25 08:57:50;;;;;;;0.30;0.30;;;;;;;;;;7377062;19;20631;-72
2022/09/25 09:00:19;;;;;;;0.30;0.30;;;;;;;;;;7378269;19;20117;-72
2022/09/25 09:02:57;;;;;;;0.30;0.30;;;;;;;;;;7385704;19;20458;-72
2022/09/25 09:05:36;;;;;;;0.30;0.30;;;;;;;;;;7380062;19;20125;-72
2022/09/25 09:08:05;;;;;;;0.30;0.30;;;;;;;;;;7385429;19;20121;-72
2022/09/25 09:10:39;;;;;;;0.47;0.47;;;;;;;;;;7379798;19;20121;-72
2022/09/25 09:13:19;;;;;;;0.30;0.30;;;;;;;;;;7366295;19;20112;-73
2022/09/25 09:15:51;;;;;;;0.30;0.30;;;;;;;;;;7376183;19;20456;-72
2022/09/25 09:18:28;;;;;;;0.20;0.20;;;;;;;;;;7381288;19;20108;-72
2022/09/25 09:20:54;;;;;;;0.30;0.30;;;;;;;;;;7382059;19;20192;-72
2022/09/25 09:26:03;;;;;;;0.30;0.30;;;;;;;;;;7371138;19;20180;-72
2022/09/25 09:28:59;;;;;;;0.30;0.30;;;;;;;;;;7377654;19;20120;-75
2022/09/25 09:31:48;;;;;;;0.40;0.40;;;;;;;;;;7383299;19;20462;-72
2022/09/25 09:34:45;;;;;;;0.23;0.23;;;;;;;;;;7384281;19;20129;-71
2022/09/25 09:37:13;;;;;;;0.50;0.50;;;;;;;;;;7384097;19;20161;-72
2022/09/25 09:39:43;;;;;;;0.50;0.50;;;;;;;;;;7382974;19;20483;-72
2022/09/25 09:42:42;;;;;;;0.30;0.30;;;;;;;;;;7376541;19;20122;-71
2022/09/25 09:45:37;;;;;;;0.30;0.30;;;;;;;;;;7376613;19;20488;-71
2022/09/25 09:48:09;;;;;;;0.30;0.30;;;;;;;;;;7381004;19;20567;-71
2022/09/25 09:50:41;;;;;;;0.97;0.97;;;;;;;;;;7375230;19;20128;-71
2022/09/25 09:53:15;;;;;;;0.30;0.30;;;;;;;;;;7376918;19;20133;-72
2022/09/25 09:55:48;;;;;;;0.30;0.30;;;;;;;;;;7375479;19;20136;-72
2022/09/25 09:58:23;;;;;;;0.30;0.30;;;;;;;;;;7378159;19;20140;-72
2022/09/25 10:00:49;;;;;;;0.30;0.30;;;;;;;;;;7377101;19;20140;-72
2022/09/25 10:03:27;;;;;;;0.20;0.20;;;;;;;;;;7378020;19;20597;-74
2022/09/25 10:06:02;;;;;;;0.30;0.30;;;;;;;;;;7379298;19;20125;-72
2022/09/25 10:08:28;;;;;;;0.20;0.20;;;;;;;;;;7374687;19;20131;-72
2022/09/25 10:10:54;;;;;;;0.30;0.30;;;;;;;;;;7378580;19;20650;-72
2022/09/25 10:13:21;;;;;;;0.30;0.30;;;;;;;;;;7377195;19;20488;-72
2022/09/25 10:15:54;;;;;;;0.30;0.30;;;;;;;;;;7377494;19;20419;-72
2022/09/25 10:18:20;;;;;;;0.30;0.30;;;;;;;;;;7376788;19;20515;-72
2022/09/25 10:21:08;;;;;;;0.40;0.40;;;;;;;;;;7380436;19;20477;-72
2022/09/25 10:23:41;;;;;;;0.47;0.47;;;;;;;;;;7371900;19;20189;-74
2022/09/25 10:26:35;;;;;;;0.30;0.30;;;;;;;;;;7373352;19;20125;-74
2022/09/25 10:29:02;;;;;;;0.70;0.70;;;;;;;;;;7369090;19;20604;-74
2022/09/25 10:31:30;;;;;;;0.30;0.30;;;;;;;;;;7373875;19;20121;-74
2022/09/25 10:34:00;;;;;;;0.30;0.30;;;;;;;;;;7377796;19;20157;-74
2022/09/25 10:36:38;;;;;;;0.40;0.40;;;;;;;;;;7377891;19;20185;-74
2022/09/25 10:42:45;;;;;;;0.35;0.35;;;;;;;;;;7369907;19;20112;-75
2022/09/25 10:51:20;;;;;;;0.85;0.85;;;;;;;;;;7377412;19;20118;-75
2022/09/25 10:53:46;;;;;;;0.38;0.38;;;;;;;;;;7381914;19;20730;-74
2022/09/25 10:59:34;;;;;;;1.42;1.33;;;;;;;;;;7379931;19;20127;-75
2022/09/25 11:06:04;;;;;;;0.60;0.60;;;;;;;;;;7391607;19;20284;-75
2022/09/25 11:08:36;;;;;;;0.30;0.30;;;;;;;;;;7373381;19;20148;-75
2022/09/25 11:11:02;;;;;;;0.82;0.82;;;;;;;;;;7376630;19;20120;-75
2022/09/25 11:13:43;;;;;;;0.20;0.20;;;;;;;;;;7380407;19;20164;-77
2022/09/25 11:16:12;;;;;;;0.55;0.55;;;;;;;;;;7375703;19;20120;-75
2022/09/25 11:18:49;;;;;;;0.30;0.30;;;;;;;;;;7375992;19;20116;-74
2022/09/25 11:21:45;;;;;;;0.43;0.43;;;;;;;;;;7383371;19;20148;-75
2022/09/25 11:24:24;;;;;;;0.52;0.52;;;;;;;;;;7380921;19;20158;-75
2022/09/25 11:27:09;;;;;;;0.30;0.30;;;;;;;;;;7385638;19;20599;-74
2022/09/25 11:29:37;;;;;;;0.30;0.30;;;;;;;;;;7385415;19;20495;-74
2022/09/25 11:32:16;;;;;;;0.70;0.70;;;;;;;;;;7385556;19;20110;-74
2022/09/25 11:34:53;;;;;;;0.40;0.40;;;;;;;;;;7387184;19;20126;-74
2022/09/25 11:37:51;;;;;;;0.30;0.30;;;;;;;;;;7388082;19;20121;-74
2022/09/25 11:43:15;;;;;;;0.85;0.68;;;;;;;;;;7385666;19;20120;-74
2022/09/25 11:45:46;;;;;;;1.27;1.20;;;;;;;;;;7385022;19;20525;-74
2022/09/25 11:48:13;;;;;;;0.98;0.95;;;;;;;;;;7386536;19;20115;-75
2022/09/25 11:51:00;;;;;;;0.30;0.30;;;;;;;;;;7383990;19;20579;-74
2022/09/25 11:53:33;;;;;;;0.38;0.38;;;;;;;;;;7383113;19;20139;-74
2022/09/25 11:56:05;;;;;;;0.32;0.32;;;;;;;;;;7385178;19;20109;-74
2022/09/25 11:58:48;;;;;;;0.52;0.52;;;;;;;;;;7384745;19;20181;-75
2022/09/25 12:01:33;;;;;;;0.30;0.30;;;;;;;;;;7382148;19;20129;-75
2022/09/25 12:04:14;;;;;;;0.57;0.57;;;;;;;;;;7381840;19;20188;-74
2022/09/25 12:07:01;;;;;;;0.30;0.30;;;;;;;;;;7381157;19;20125;-75
2022/09/25 12:09:55;;;;;;;0.30;0.30;;;;;;;;;;7369108;19;20132;-74
2022/09/25 12:12:41;;;;;;;0.95;0.95;;;;;;;;;;7381090;19;20133;-74
2022/09/25 12:15:16;;;;;;;0.20;0.20;;;;;;;;;;7372368;19;20121;-75
2022/09/25 12:18:00;;;;;;;0.73;0.73;;;;;;;;;;7374791;19;20124;-74
2022/09/25 12:20:49;;;;;;;0.30;0.30;;;;;;;;;;7374626;19;20459;-74
2022/09/25 12:23:46;;;;;;;0.68;0.68;;;;;;;;;;7378306;19;20269;-75
2022/09/25 12:26:32;;;;;;;0.30;0.30;;;;;;;;;;7377675;19;20105;-75
2022/09/25 12:29:05;;;;;;;0.80;0.80;;;;;;;;;;7379487;19;20128;-75
2022/09/25 12:31:40;;;;;;;0.30;0.30;;;;;;;;;;7374192;19;20125;-72
2022/09/25 12:34:51;;;;;;;0.57;0.57;;;;;;;;;;7376055;19;20589;-72
2022/09/25 12:37:20;;;;;;;0.30;0.30;;;;;;;;;;7378646;19;20541;-72
2022/09/25 12:39:52;;;;;;;0.30;0.30;;;;;;;;;;7375248;19;20557;-73
2022/09/25 12:42:22;;;;;;;0.45;0.45;;;;;;;;;;7379172;19;20121;-73
2022/09/25 12:44:55;;;;;;;0.30;0.30;;;;;;;;;;7377533;19;20155;-73
2022/09/25 12:47:31;;;;;;;0.50;0.50;;;;;;;;;;7380600;19;20563;-73
2022/09/25 12:50:10;;;;;;;0.40;0.40;;;;;;;;;;7380175;19;20131;-74
2022/09/25 12:52:39;;;;;;;0.30;0.30;;;;;;;;;;7376569;19;20135;-73
2022/09/25 12:55:12;;;;;;;0.30;0.30;;;;;;;;;;7377567;19;20133;-73
2022/09/25 12:57:44;;;;;;;0.77;0.77;;;;;;;;;;7381405;19;20215;-73
2022/09/25 13:00:24;;;;;;;0.30;0.30;;;;;;;;;;7379479;19;20121;-73
2022/09/25 13:03:16;;;;;;;0.40;0.40;;;;;;;;;;7377233;19;20124;-73
2022/09/25 13:06:04;;;;;;;0.70;0.70;;;;;;;;;;7379097;19;20496;-74
2022/09/25 13:08:38;;;;;;;0.35;0.35;;;;;;;;;;7378803;19;20106;-73
2022/09/25 13:11:09;;;;;;;0.32;0.32;;;;;;;;;;7375368;19;20125;-73
2022/09/25 13:13:44;;;;;;;0.30;0.30;;;;;;;;;;7378343;19;20125;-73
2022/09/25 13:16:13;;;;;;;0.30;0.30;;;;;;;;;;7380929;19;20121;-73
2022/09/25 13:18:38;;;;;;;0.57;0.57;;;;;;;;;;7377642;19;20474;-73
2022/09/25 13:21:25;;;;;;;0.30;0.30;;;;;;;;;;7376057;19;20178;-73
2022/09/25 13:23:52;;;;;;;0.30;0.30;;;;;;;;;;7374299;19;20662;-73
2022/09/25 13:26:23;;;;;;;0.30;0.30;;;;;;;;;;7376649;19;20126;-73
2022/09/25 13:28:56;;;;;;;0.30;0.30;;;;;;;;;;7376409;19;20109;-74
2022/09/25 13:31:27;;;;;;;0.60;0.60;;;;;;;;;;7379086;19;20189;-73
2022/09/25 13:33:56;;;;;;;0.30;0.30;;;;;;;;;;7377451;19;20647;-73
2022/09/25 13:36:22;;;;;;;0.60;0.60;;;;;;;;;;7379283;19;20148;-73
2022/09/25 13:41:35;;;;;;;0.30;0.30;;;;;;;;;;7378721;19;20484;-74
2022/09/25 13:44:39;;;;;;;0.30;0.30;;;;;;;;;;7370176;19;20129;-74
2022/09/25 13:47:23;;;;;;;0.30;0.30;;;;;;;;;;7382763;19;20481;-73
2022/09/25 13:49:59;;;;;;;0.30;0.30;;;;;;;;;;7374553;19;20141;-73
2022/09/25 13:52:47;;;;;;;0.30;0.30;;;;;;;;;;7382699;19;20129;-74
2022/09/25 13:55:12;;;;;;;0.30;0.30;;;;;;;;;;7382367;19;20495;-73
2022/09/25 13:57:58;;;;;;;0.30;0.30;;;;;;;;;;7385187;19;20113;-73
2022/09/25 14:00:25;;;;;;;0.30;0.30;;;;;;;;;;7380933;19;20490;-73
2022/09/25 14:02:59;;;;;;;0.32;0.32;;;;;;;;;;7385190;19;20511;-74
2022/09/25 14:05:26;;;;;;;0.30;0.30;;;;;;;;;;7382029;19;20649;-74
2022/09/25 14:07:56;;;;;;;0.30;0.30;;;;;;;;;;7383620;19;20133;-73
2022/09/25 14:12:54;;;;;;;0.30;0.30;;;;;;;;;;7385034;19;20133;-73
2022/09/25 14:15:23;;;;;;;0.30;0.30;;;;;;;;;;7374101;19;20627;-73
2022/09/25 15:25:40;;;;;;;0.60;0.60;;;;;;;;;;7400863;19;20663;-90
2022/09/25 15:28:07;;;;;;;0.30;0.30;;;;;;;;;;7397937;19;20588;-88
2022/09/25 15:30:40;;;;;;;0.73;0.73;;;;;;;;;;7394198;19;20129;-91
2022/09/25 15:33:25;;;;;;;0.67;0.67;;;;;;;;;;7393538;19;20157;-90
2022/09/25 15:35:56;;;;;;;0.40;0.40;;;;;;;;;;7397898;19;20125;-90
2022/09/25 15:38:33;;;;;;;0.93;0.93;;;;;;;;;;7396412;19;20132;-88
2022/09/25 15:40:58;;;;;;;0.38;0.38;;;;;;;;;;7396924;19;20117;-88
2022/09/25 15:43:24;;;;;;;0.30;0.30;;;;;;;;;;7394110;19;20167;-88
2022/09/25 15:46:05;;;;;;;0.40;0.40;;;;;;;;;;7394991;19;20204;-90
2022/09/25 15:48:51;;;;;;;0.47;0.40;;;;;;;;;;7397702;19;20130;-88
2022/09/25 15:51:19;;;;;;;0.30;0.30;;;;;;;;;;7397270;19;20144;-89
2022/09/25 15:53:51;;;;;;;0.35;0.35;;;;;;;;;;7395283;19;20160;-89
2022/09/25 15:56:40;;;;;;;0.30;0.30;;;;;;;;;;7400563;19;20118;-90
2022/09/25 15:59:33;;;;;;;0.30;0.30;;;;;;;;;;7401382;19;20137;-92
2022/09/25 16:05:13;;;;;;;0.30;0.30;;;;;;;;;;7404138;19;20120;-91
2022/09/25 16:07:39;;;;;;;0.40;0.40;;;;;;;;;;7401689;19;20122;-90
2022/09/25 16:10:22;;;;;;;0.30;0.30;;;;;;;;;;7400073;19;20172;-90
2022/09/25 16:13:00;;;;;;;0.30;0.30;;;;;;;;;;7397586;19;20236;-90
2022/09/25 16:15:26;;;;;;;0.30;0.30;;;;;;;;;;7400503;19;20125;-89
2022/09/25 16:17:59;;;;;;;0.30;0.30;;;;;;;;;;7401879;19;20171;-89
2022/09/25 16:20:36;;;;;;;0.30;0.30;;;;;;;;;;7403778;19;20625;-89
2022/09/25 16:23:06;;;;;;;0.30;0.30;;;;;;;;;;7400215;19;20176;-89
2022/09/25 16:25:35;;;;;;;0.50;0.50;;;;;;;;;;7403088;19;20129;-89
2022/09/25 16:28:05;;;;;;;0.30;0.30;;;;;;;;;;7405083;19;20626;-89
2022/09/25 16:30:30;;;;;;;0.30;0.30;;;;;;;;;;7404196;19;20128;-90
2022/09/25 16:33:20;;;;;;;0.30;0.30;;;;;;;;;;7409403;19;20161;-89
2022/09/25 16:35:46;;;;;;;0.20;0.20;;;;;;;;;;7414089;19;20129;-91
2022/09/25 16:38:31;;;;;;;0.53;0.53;;;;;;;;;;7420394;19;20132;-90
2022/09/25 16:41:16;;;;;;;0.30;0.30;;;;;;;;;;7416967;19;20159;-89
2022/09/25 16:43:41;;;;;;;0.30;0.30;;;;;;;;;;7401017;19;20153;-89
2022/09/25 16:46:15;;;;;;;0.97;0.60;;;;;;;;;;7394798;19;20130;-88
2022/09/25 16:48:41;;;;;;;0.30;0.30;;;;;;;;;;7389949;19;20136;-88
2022/09/25 16:51:20;;;;;;;0.28;0.28;;;;;;;;;;7389330;19;20129;-89
2022/09/25 16:53:49;;;;;;;0.30;0.30;;;;;;;;;;7388839;19;20743;-88
2022/09/25 16:56:22;;;;;;;0.23;0.23;;;;;;;;;;7392349;19;20125;-88
2022/09/25 16:58:48;;;;;;;0.30;0.30;;;;;;;;;;7392601;19;20133;-91
2022/09/25 17:01:13;;;;;;;0.30;0.30;;;;;;;;;;7393902;19;20137;-89
2022/09/25 17:03:51;;;;;;;0.40;0.40;;;;;;;;;;7389832;19;20188;-89